sensor_id;sensor_type;location;lat;lon;timestamp;P1;durP1;ratioP1;P2;durP2;ratioP2
41883;SDS011;27566;50.930;5.328;2023-07-20T00:01:59;14.27;;;7.93;;
41883;SDS011;27566;50.930;5.328;2023-07-20T00:04:25;18.30;;;12.18;;
41883;SDS011;27566;50.930;5.328;2023-07-20T00:06:51;14.02;;;8.40;;
41883;SDS011;27566;50.930;5.328;2023-07-20T00:09:16;14.88;;;8.60;;
41883;SDS011;27566;50.930;5.328;2023-07-20T00:11:47;19.67;;;8.23;;
41883;SDS011;27566;50.930;5.328;2023-07-20T00:14:15;17.05;;;8.43;;
41883;SDS011;27566;50.930;5.328;2023-07-20T00:16:41;16.00;;;7.30;;
41883;SDS011;27566;50.930;5.328;2023-07-20T00:19:07;10.95;;;5.45;;
41883;SDS011;27566;50.930;5.328;2023-07-20T00:21:34;12.77;;;7.57;;
41883;SDS011;27566;50.930;5.328;2023-07-20T00:24:00;9.75;;;6.28;;
41883;SDS011;27566;50.930;5.328;2023-07-20T00:26:25;13.00;;;6.53;;
41883;SDS011;27566;50.930;5.328;2023-07-20T00:28:51;10.43;;;6.38;;
41883;SDS011;27566;50.930;5.328;2023-07-20T00:31:17;14.10;;;7.18;;
41883;SDS011;27566;50.930;5.328;2023-07-20T00:33:43;12.25;;;6.18;;
41883;SDS011;27566;50.930;5.328;2023-07-20T00:36:09;13.35;;;6.03;;
41883;SDS011;27566;50.930;5.328;2023-07-20T00:38:34;10.30;;;6.22;;
41883;SDS011;27566;50.930;5.328;2023-07-20T00:41:00;10.88;;;6.70;;
41883;SDS011;27566;50.930;5.328;2023-07-20T00:43:26;11.80;;;5.93;;
41883;SDS011;27566;50.930;5.328;2023-07-20T00:45:52;8.82;;;5.95;;
41883;SDS011;27566;50.930;5.328;2023-07-20T00:48:18;10.50;;;5.50;;
41883;SDS011;27566;50.930;5.328;2023-07-20T00:50:44;8.40;;;5.22;;
41883;SDS011;27566;50.930;5.328;2023-07-20T00:53:10;13.38;;;6.38;;
41883;SDS011;27566;50.930;5.328;2023-07-20T00:55:36;13.00;;;7.13;;
41883;SDS011;27566;50.930;5.328;2023-07-20T00:58:02;13.27;;;5.65;;
41883;SDS011;27566;50.930;5.328;2023-07-20T01:00:28;10.85;;;5.38;;
41883;SDS011;27566;50.930;5.328;2023-07-20T01:02:54;11.40;;;7.53;;
41883;SDS011;27566;50.930;5.328;2023-07-20T01:05:20;9.05;;;5.15;;
41883;SDS011;27566;50.930;5.328;2023-07-20T01:07:52;7.80;;;4.65;;
41883;SDS011;27566;50.930;5.328;2023-07-20T01:13:04;11.82;;;6.05;;
41883;SDS011;27566;50.930;5.328;2023-07-20T01:15:33;12.63;;;6.47;;
41883;SDS011;27566;50.930;5.328;2023-07-20T01:17:59;16.20;;;8.02;;
41883;SDS011;27566;50.930;5.328;2023-07-20T01:20:26;10.75;;;5.63;;
41883;SDS011;27566;50.930;5.328;2023-07-20T01:33:28;8.27;;;5.38;;
41883;SDS011;27566;50.930;5.328;2023-07-20T01:35:57;13.15;;;6.00;;
41883;SDS011;27566;50.930;5.328;2023-07-20T01:38:25;13.30;;;6.65;;
41883;SDS011;27566;50.930;5.328;2023-07-20T01:40:51;13.55;;;7.10;;
41883;SDS011;27566;50.930;5.328;2023-07-20T01:43:17;11.18;;;5.60;;
41883;SDS011;27566;50.930;5.328;2023-07-20T01:45:43;8.35;;;4.82;;
41883;SDS011;27566;50.930;5.328;2023-07-20T01:48:09;11.07;;;5.55;;
41883;SDS011;27566;50.930;5.328;2023-07-20T01:50:36;10.50;;;5.07;;
41883;SDS011;27566;50.930;5.328;2023-07-20T01:53:02;15.20;;;6.25;;
41883;SDS011;27566;50.930;5.328;2023-07-20T01:55:28;9.88;;;5.00;;
41883;SDS011;27566;50.930;5.328;2023-07-20T01:57:55;13.20;;;4.30;;
41883;SDS011;27566;50.930;5.328;2023-07-20T02:00:21;13.23;;;6.88;;
41883;SDS011;27566;50.930;5.328;2023-07-20T02:02:50;10.27;;;6.18;;
41883;SDS011;27566;50.930;5.328;2023-07-20T02:05:16;8.30;;;4.80;;
41883;SDS011;27566;50.930;5.328;2023-07-20T02:07:42;13.00;;;6.72;;
41883;SDS011;27566;50.930;5.328;2023-07-20T02:10:08;8.35;;;4.20;;
41883;SDS011;27566;50.930;5.328;2023-07-20T02:12:34;11.02;;;4.97;;
41883;SDS011;27566;50.930;5.328;2023-07-20T02:15:01;15.15;;;6.32;;
41883;SDS011;27566;50.930;5.328;2023-07-20T02:17:27;9.20;;;4.55;;
41883;SDS011;27566;50.930;5.328;2023-07-20T02:19:53;10.63;;;4.93;;
41883;SDS011;27566;50.930;5.328;2023-07-20T02:22:20;10.68;;;4.50;;
41883;SDS011;27566;50.930;5.328;2023-07-20T02:24:46;11.10;;;5.43;;
41883;SDS011;27566;50.930;5.328;2023-07-20T02:27:12;15.20;;;5.18;;
41883;SDS011;27566;50.930;5.328;2023-07-20T02:29:38;8.35;;;4.47;;
41883;SDS011;27566;50.930;5.328;2023-07-20T02:32:06;9.93;;;4.75;;
41883;SDS011;27566;50.930;5.328;2023-07-20T02:34:32;11.25;;;5.43;;
41883;SDS011;27566;50.930;5.328;2023-07-20T02:36:58;11.75;;;4.85;;
41883;SDS011;27566;50.930;5.328;2023-07-20T02:39:29;14.68;;;5.38;;
41883;SDS011;27566;50.930;5.328;2023-07-20T02:41:55;11.88;;;5.53;;
41883;SDS011;27566;50.930;5.328;2023-07-20T02:44:21;8.85;;;5.07;;
41883;SDS011;27566;50.930;5.328;2023-07-20T02:46:46;13.60;;;5.47;;
41883;SDS011;27566;50.930;5.328;2023-07-20T02:49:14;18.92;;;6.07;;
41883;SDS011;27566;50.930;5.328;2023-07-20T02:51:41;9.00;;;4.93;;
41883;SDS011;27566;50.930;5.328;2023-07-20T02:54:07;11.35;;;5.18;;
41883;SDS011;27566;50.930;5.328;2023-07-20T02:56:33;10.98;;;4.88;;
41883;SDS011;27566;50.930;5.328;2023-07-20T02:59:00;16.65;;;6.13;;
41883;SDS011;27566;50.930;5.328;2023-07-20T03:01:26;10.30;;;5.18;;
41883;SDS011;27566;50.930;5.328;2023-07-20T03:03:54;11.77;;;6.28;;
41883;SDS011;27566;50.930;5.328;2023-07-20T03:06:22;8.50;;;5.10;;
41883;SDS011;27566;50.930;5.328;2023-07-20T03:08:48;8.95;;;4.85;;
41883;SDS011;27566;50.930;5.328;2023-07-20T03:11:17;10.05;;;4.47;;
41883;SDS011;27566;50.930;5.328;2023-07-20T03:13:44;12.65;;;5.18;;
41883;SDS011;27566;50.930;5.328;2023-07-20T03:16:10;12.35;;;4.72;;
41883;SDS011;27566;50.930;5.328;2023-07-20T03:18:38;10.30;;;5.50;;
41883;SDS011;27566;50.930;5.328;2023-07-20T03:21:04;14.30;;;5.47;;
41883;SDS011;27566;50.930;5.328;2023-07-20T03:23:30;13.25;;;6.32;;
41883;SDS011;27566;50.930;5.328;2023-07-20T03:25:56;12.20;;;5.53;;
41883;SDS011;27566;50.930;5.328;2023-07-20T03:28:22;12.05;;;5.88;;
41883;SDS011;27566;50.930;5.328;2023-07-20T03:30:54;12.93;;;5.95;;
41883;SDS011;27566;50.930;5.328;2023-07-20T03:33:28;16.60;;;5.95;;
41883;SDS011;27566;50.930;5.328;2023-07-20T03:35:55;12.85;;;6.18;;
41883;SDS011;27566;50.930;5.328;2023-07-20T03:38:24;11.00;;;5.13;;
41883;SDS011;27566;50.930;5.328;2023-07-20T03:40:52;11.65;;;5.55;;
41883;SDS011;27566;50.930;5.328;2023-07-20T03:43:19;14.02;;;5.30;;
41883;SDS011;27566;50.930;5.328;2023-07-20T03:45:46;16.67;;;6.70;;
41883;SDS011;27566;50.930;5.328;2023-07-20T03:48:13;10.50;;;4.90;;
41883;SDS011;27566;50.930;5.328;2023-07-20T03:50:40;10.10;;;5.70;;
41883;SDS011;27566;50.930;5.328;2023-07-20T03:53:06;12.25;;;5.50;;
41883;SDS011;27566;50.930;5.328;2023-07-20T03:55:32;10.13;;;5.25;;
41883;SDS011;27566;50.930;5.328;2023-07-20T03:57:58;12.10;;;5.13;;
41883;SDS011;27566;50.930;5.328;2023-07-20T04:00:23;12.63;;;5.13;;
41883;SDS011;27566;50.930;5.328;2023-07-20T04:02:49;12.73;;;4.85;;
41883;SDS011;27566;50.930;5.328;2023-07-20T04:05:15;18.63;;;6.28;;
41883;SDS011;27566;50.930;5.328;2023-07-20T04:07:42;10.98;;;5.97;;
41883;SDS011;27566;50.930;5.328;2023-07-20T04:10:08;11.25;;;5.72;;
41883;SDS011;27566;50.930;5.328;2023-07-20T04:12:35;11.80;;;6.18;;
41883;SDS011;27566;50.930;5.328;2023-07-20T04:15:01;12.77;;;4.97;;
41883;SDS011;27566;50.930;5.328;2023-07-20T04:17:28;9.35;;;5.43;;
41883;SDS011;27566;50.930;5.328;2023-07-20T04:19:54;12.65;;;5.55;;
41883;SDS011;27566;50.930;5.328;2023-07-20T04:22:19;11.30;;;5.00;;
41883;SDS011;27566;50.930;5.328;2023-07-20T04:24:46;12.98;;;5.50;;
41883;SDS011;27566;50.930;5.328;2023-07-20T04:27:12;11.90;;;5.78;;
41883;SDS011;27566;50.930;5.328;2023-07-20T04:29:37;10.40;;;5.05;;
41883;SDS011;27566;50.930;5.328;2023-07-20T04:32:03;9.18;;;5.60;;
41883;SDS011;27566;50.930;5.328;2023-07-20T04:34:29;10.82;;;6.45;;
41883;SDS011;27566;50.930;5.328;2023-07-20T04:36:55;12.95;;;6.47;;
41883;SDS011;27566;50.930;5.328;2023-07-20T04:39:21;13.48;;;6.28;;
41883;SDS011;27566;50.930;5.328;2023-07-20T04:41:47;14.40;;;7.15;;
41883;SDS011;27566;50.930;5.328;2023-07-20T04:44:13;14.98;;;7.28;;
41883;SDS011;27566;50.930;5.328;2023-07-20T04:46:39;14.73;;;8.10;;
41883;SDS011;27566;50.930;5.328;2023-07-20T04:49:05;10.95;;;6.90;;
41883;SDS011;27566;50.930;5.328;2023-07-20T04:51:31;13.27;;;7.25;;
41883;SDS011;27566;50.930;5.328;2023-07-20T04:53:57;12.70;;;7.13;;
41883;SDS011;27566;50.930;5.328;2023-07-20T04:56:23;15.23;;;8.10;;
41883;SDS011;27566;50.930;5.328;2023-07-20T04:58:49;11.98;;;7.38;;
41883;SDS011;27566;50.930;5.328;2023-07-20T05:01:15;15.88;;;8.80;;
41883;SDS011;27566;50.930;5.328;2023-07-20T05:03:41;13.35;;;8.48;;
41883;SDS011;27566;50.930;5.328;2023-07-20T05:06:07;16.90;;;8.32;;
41883;SDS011;27566;50.930;5.328;2023-07-20T05:08:33;11.85;;;7.55;;
41883;SDS011;27566;50.930;5.328;2023-07-20T05:10:59;16.02;;;8.48;;
41883;SDS011;27566;50.930;5.328;2023-07-20T05:13:25;15.55;;;7.68;;
41883;SDS011;27566;50.930;5.328;2023-07-20T05:15:51;11.35;;;7.05;;
41883;SDS011;27566;50.930;5.328;2023-07-20T05:18:18;16.67;;;8.18;;
41883;SDS011;27566;50.930;5.328;2023-07-20T05:20:48;12.00;;;7.53;;
41883;SDS011;27566;50.930;5.328;2023-07-20T05:23:17;13.57;;;7.30;;
41883;SDS011;27566;50.930;5.328;2023-07-20T05:25:44;17.30;;;9.05;;
41883;SDS011;27566;50.930;5.328;2023-07-20T05:28:09;14.85;;;7.28;;
41883;SDS011;27566;50.930;5.328;2023-07-20T05:30:35;18.00;;;8.02;;
41883;SDS011;27566;50.930;5.328;2023-07-20T05:33:01;10.93;;;7.93;;
41883;SDS011;27566;50.930;5.328;2023-07-20T05:35:27;16.25;;;7.88;;
41883;SDS011;27566;50.930;5.328;2023-07-20T05:37:53;15.95;;;9.75;;
41883;SDS011;27566;50.930;5.328;2023-07-20T05:40:18;18.92;;;10.75;;
41883;SDS011;27566;50.930;5.328;2023-07-20T05:42:46;18.65;;;12.60;;
41883;SDS011;27566;50.930;5.328;2023-07-20T05:45:14;18.05;;;13.95;;
41883;SDS011;27566;50.930;5.328;2023-07-20T05:47:41;19.50;;;13.68;;
41883;SDS011;27566;50.930;5.328;2023-07-20T05:50:07;19.75;;;10.75;;
41883;SDS011;27566;50.930;5.328;2023-07-20T05:52:34;20.88;;;11.57;;
41883;SDS011;27566;50.930;5.328;2023-07-20T05:54:59;19.20;;;11.13;;
41883;SDS011;27566;50.930;5.328;2023-07-20T05:57:25;26.77;;;13.35;;
41883;SDS011;27566;50.930;5.328;2023-07-20T05:59:51;17.10;;;12.23;;
41883;SDS011;27566;50.930;5.328;2023-07-20T06:02:17;20.95;;;13.15;;
41883;SDS011;27566;50.930;5.328;2023-07-20T06:04:42;18.80;;;12.50;;
41883;SDS011;27566;50.930;5.328;2023-07-20T06:07:08;19.08;;;13.05;;
41883;SDS011;27566;50.930;5.328;2023-07-20T06:09:34;14.23;;;11.27;;
41883;SDS011;27566;50.930;5.328;2023-07-20T06:12:00;16.20;;;11.50;;
41883;SDS011;27566;50.930;5.328;2023-07-20T06:14:26;18.38;;;11.65;;
41883;SDS011;27566;50.930;5.328;2023-07-20T06:16:51;18.00;;;11.10;;
41883;SDS011;27566;50.930;5.328;2023-07-20T06:19:17;18.30;;;12.57;;
41883;SDS011;27566;50.930;5.328;2023-07-20T06:21:43;15.55;;;10.32;;
41883;SDS011;27566;50.930;5.328;2023-07-20T06:24:12;17.23;;;12.05;;
41883;SDS011;27566;50.930;5.328;2023-07-20T06:26:37;15.73;;;10.93;;
41883;SDS011;27566;50.930;5.328;2023-07-20T06:29:07;16.10;;;10.75;;
41883;SDS011;27566;50.930;5.328;2023-07-20T06:31:34;15.88;;;12.07;;
41883;SDS011;27566;50.930;5.328;2023-07-20T06:34:01;13.88;;;11.23;;
41883;SDS011;27566;50.930;5.328;2023-07-20T06:36:27;16.75;;;11.02;;
41883;SDS011;27566;50.930;5.328;2023-07-20T06:38:53;16.20;;;11.25;;
41883;SDS011;27566;50.930;5.328;2023-07-20T06:41:20;16.10;;;10.70;;
41883;SDS011;27566;50.930;5.328;2023-07-20T06:43:46;18.63;;;9.52;;
41883;SDS011;27566;50.930;5.328;2023-07-20T06:46:12;15.35;;;11.18;;
41883;SDS011;27566;50.930;5.328;2023-07-20T06:48:38;13.88;;;10.40;;
41883;SDS011;27566;50.930;5.328;2023-07-20T06:51:04;15.75;;;10.57;;
41883;SDS011;27566;50.930;5.328;2023-07-20T06:53:30;15.40;;;10.30;;
41883;SDS011;27566;50.930;5.328;2023-07-20T06:55:55;15.45;;;10.77;;
41883;SDS011;27566;50.930;5.328;2023-07-20T06:58:23;17.73;;;10.45;;
41883;SDS011;27566;50.930;5.328;2023-07-20T07:00:49;14.18;;;9.77;;
41883;SDS011;27566;50.930;5.328;2023-07-20T07:03:17;13.35;;;10.20;;
41883;SDS011;27566;50.930;5.328;2023-07-20T07:05:43;14.48;;;10.75;;
41883;SDS011;27566;50.930;5.328;2023-07-20T07:08:12;14.50;;;9.77;;
41883;SDS011;27566;50.930;5.328;2023-07-20T07:10:38;14.63;;;10.85;;
41883;SDS011;27566;50.930;5.328;2023-07-20T07:13:04;11.57;;;9.68;;
41883;SDS011;27566;50.930;5.328;2023-07-20T07:15:30;12.93;;;9.65;;
41883;SDS011;27566;50.930;5.328;2023-07-20T07:17:55;13.45;;;11.13;;
41883;SDS011;27566;50.930;5.328;2023-07-20T07:20:21;15.50;;;10.30;;
41883;SDS011;27566;50.930;5.328;2023-07-20T07:22:49;9.40;;;7.70;;
41883;SDS011;27566;50.930;5.328;2023-07-20T07:25:17;12.82;;;9.98;;
41883;SDS011;27566;50.930;5.328;2023-07-20T07:27:43;11.90;;;9.55;;
41883;SDS011;27566;50.930;5.328;2023-07-20T07:30:09;10.95;;;9.57;;
41883;SDS011;27566;50.930;5.328;2023-07-20T07:32:35;13.05;;;8.93;;
41883;SDS011;27566;50.930;5.328;2023-07-20T07:35:01;13.77;;;10.43;;
41883;SDS011;27566;50.930;5.328;2023-07-20T07:37:27;13.27;;;9.95;;
41883;SDS011;27566;50.930;5.328;2023-07-20T07:39:52;10.68;;;8.45;;
41883;SDS011;27566;50.930;5.328;2023-07-20T07:42:18;12.48;;;7.93;;
41883;SDS011;27566;50.930;5.328;2023-07-20T07:44:44;13.38;;;9.23;;
41883;SDS011;27566;50.930;5.328;2023-07-20T07:47:10;14.77;;;7.68;;
41883;SDS011;27566;50.930;5.328;2023-07-20T07:49:36;12.02;;;8.38;;
41883;SDS011;27566;50.930;5.328;2023-07-20T07:52:02;10.65;;;8.65;;
41883;SDS011;27566;50.930;5.328;2023-07-20T07:54:28;12.38;;;7.95;;
41883;SDS011;27566;50.930;5.328;2023-07-20T07:56:54;8.13;;;6.40;;
41883;SDS011;27566;50.930;5.328;2023-07-20T07:59:20;9.13;;;6.22;;
41883;SDS011;27566;50.930;5.328;2023-07-20T08:01:46;14.57;;;7.75;;
41883;SDS011;27566;50.930;5.328;2023-07-20T08:04:11;14.30;;;7.95;;
41883;SDS011;27566;50.930;5.328;2023-07-20T08:06:38;10.18;;;6.95;;
41883;SDS011;27566;50.930;5.328;2023-07-20T08:09:04;9.90;;;6.32;;
41883;SDS011;27566;50.930;5.328;2023-07-20T08:11:30;13.20;;;6.55;;
41883;SDS011;27566;50.930;5.328;2023-07-20T08:14:01;12.27;;;7.22;;
41883;SDS011;27566;50.930;5.328;2023-07-20T08:16:27;9.13;;;5.60;;
41883;SDS011;27566;50.930;5.328;2023-07-20T08:18:53;8.55;;;5.90;;
41883;SDS011;27566;50.930;5.328;2023-07-20T08:21:19;8.65;;;4.85;;
41883;SDS011;27566;50.930;5.328;2023-07-20T08:23:45;7.93;;;5.75;;
41883;SDS011;27566;50.930;5.328;2023-07-20T08:26:11;8.57;;;5.05;;
41883;SDS011;27566;50.930;5.328;2023-07-20T08:28:37;8.85;;;6.25;;
41883;SDS011;27566;50.930;5.328;2023-07-20T08:31:05;9.48;;;5.90;;
41883;SDS011;27566;50.930;5.328;2023-07-20T08:33:31;9.73;;;6.30;;
41883;SDS011;27566;50.930;5.328;2023-07-20T08:35:59;8.90;;;5.47;;
41883;SDS011;27566;50.930;5.328;2023-07-20T08:38:26;8.02;;;5.47;;
41883;SDS011;27566;50.930;5.328;2023-07-20T08:40:53;10.38;;;6.00;;
41883;SDS011;27566;50.930;5.328;2023-07-20T08:43:20;8.52;;;6.70;;
41883;SDS011;27566;50.930;5.328;2023-07-20T08:45:51;9.68;;;6.75;;
41883;SDS011;27566;50.930;5.328;2023-07-20T08:48:20;10.07;;;6.43;;
41883;SDS011;27566;50.930;5.328;2023-07-20T08:50:47;8.50;;;6.15;;
41883;SDS011;27566;50.930;5.328;2023-07-20T08:53:15;7.43;;;5.28;;
41883;SDS011;27566;50.930;5.328;2023-07-20T08:55:42;8.60;;;5.38;;
41883;SDS011;27566;50.930;5.328;2023-07-20T08:58:12;7.88;;;5.82;;
41883;SDS011;27566;50.930;5.328;2023-07-20T09:00:39;6.45;;;3.80;;
41883;SDS011;27566;50.930;5.328;2023-07-20T09:03:07;5.60;;;4.03;;
41883;SDS011;27566;50.930;5.328;2023-07-20T09:05:33;7.07;;;4.38;;
41883;SDS011;27566;50.930;5.328;2023-07-20T09:08:00;7.43;;;4.35;;
41883;SDS011;27566;50.930;5.328;2023-07-20T09:10:29;5.18;;;3.72;;
41883;SDS011;27566;50.930;5.328;2023-07-20T09:12:55;5.38;;;3.70;;
41883;SDS011;27566;50.930;5.328;2023-07-20T09:15:21;7.22;;;4.22;;
41883;SDS011;27566;50.930;5.328;2023-07-20T09:17:51;5.65;;;3.80;;
41883;SDS011;27566;50.930;5.328;2023-07-20T09:20:19;4.93;;;3.05;;
41883;SDS011;27566;50.930;5.328;2023-07-20T09:22:45;6.22;;;2.80;;
41883;SDS011;27566;50.930;5.328;2023-07-20T09:27:42;5.45;;;3.60;;
41883;SDS011;27566;50.930;5.328;2023-07-20T09:30:13;5.38;;;3.45;;
41883;SDS011;27566;50.930;5.328;2023-07-20T09:32:42;5.32;;;3.15;;
41883;SDS011;27566;50.930;5.328;2023-07-20T09:35:18;9.15;;;2.90;;
41883;SDS011;27566;50.930;5.328;2023-07-20T09:37:54;5.63;;;3.85;;
41883;SDS011;27566;50.930;5.328;2023-07-20T09:40:24;8.20;;;4.05;;
41883;SDS011;27566;50.930;5.328;2023-07-20T09:42:54;6.95;;;3.20;;
41883;SDS011;27566;50.930;5.328;2023-07-20T09:45:31;6.88;;;3.97;;
41883;SDS011;27566;50.930;5.328;2023-07-20T09:48:08;7.50;;;2.80;;
41883;SDS011;27566;50.930;5.328;2023-07-20T09:50:42;3.05;;;2.08;;
41883;SDS011;27566;50.930;5.328;2023-07-20T09:53:14;4.82;;;2.45;;
41883;SDS011;27566;50.930;5.328;2023-07-20T09:55:43;3.38;;;2.25;;
41883;SDS011;27566;50.930;5.328;2023-07-20T09:58:10;5.03;;;2.85;;
41883;SDS011;27566;50.930;5.328;2023-07-20T10:00:37;3.58;;;2.35;;
41883;SDS011;27566;50.930;5.328;2023-07-20T10:03:06;4.28;;;2.05;;
41883;SDS011;27566;50.930;5.328;2023-07-20T10:05:33;3.70;;;2.63;;
41883;SDS011;27566;50.930;5.328;2023-07-20T10:08:00;3.20;;;2.10;;
41883;SDS011;27566;50.930;5.328;2023-07-20T10:10:28;4.50;;;2.83;;
41883;SDS011;27566;50.930;5.328;2023-07-20T10:12:55;5.68;;;3.50;;
41883;SDS011;27566;50.930;5.328;2023-07-20T10:15:24;6.72;;;3.45;;
41883;SDS011;27566;50.930;5.328;2023-07-20T10:18:03;5.63;;;3.42;;
41883;SDS011;27566;50.930;5.328;2023-07-20T10:20:39;5.18;;;3.28;;
41883;SDS011;27566;50.930;5.328;2023-07-20T10:23:09;4.88;;;2.55;;
41883;SDS011;27566;50.930;5.328;2023-07-20T10:25:36;5.38;;;3.10;;
41883;SDS011;27566;50.930;5.328;2023-07-20T10:28:06;4.82;;;3.22;;
41883;SDS011;27566;50.930;5.328;2023-07-20T10:30:36;6.93;;;3.22;;
41883;SDS011;27566;50.930;5.328;2023-07-20T10:33:03;5.47;;;2.95;;
41883;SDS011;27566;50.930;5.328;2023-07-20T10:35:29;4.47;;;2.75;;
41883;SDS011;27566;50.930;5.328;2023-07-20T10:38:02;5.32;;;3.45;;
41883;SDS011;27566;50.930;5.328;2023-07-20T10:40:33;5.00;;;2.90;;
41883;SDS011;27566;50.930;5.328;2023-07-20T10:45:39;2.90;;;1.90;;
41883;SDS011;27566;50.930;5.328;2023-07-20T10:48:40;3.75;;;2.45;;
41883;SDS011;27566;50.930;5.328;2023-07-20T10:53:36;4.95;;;2.78;;
41883;SDS011;27566;50.930;5.328;2023-07-20T10:56:21;5.45;;;3.00;;
41883;SDS011;27566;50.930;5.328;2023-07-20T10:58:47;3.85;;;2.67;;
41883;SDS011;27566;50.930;5.328;2023-07-20T11:01:14;3.25;;;2.05;;
41883;SDS011;27566;50.930;5.328;2023-07-20T11:03:42;4.55;;;2.40;;
41883;SDS011;27566;50.930;5.328;2023-07-20T11:09:12;3.53;;;2.50;;
41883;SDS011;27566;50.930;5.328;2023-07-20T11:11:42;5.68;;;3.33;;
41883;SDS011;27566;50.930;5.328;2023-07-20T11:14:25;5.13;;;2.78;;
41883;SDS011;27566;50.930;5.328;2023-07-20T11:16:52;4.68;;;2.33;;
41883;SDS011;27566;50.930;5.328;2023-07-20T11:19:22;5.20;;;2.40;;
41883;SDS011;27566;50.930;5.328;2023-07-20T11:24:18;2.20;;;1.95;;
41883;SDS011;27566;50.930;5.328;2023-07-20T11:29:12;5.03;;;2.67;;
41883;SDS011;27566;50.930;5.328;2023-07-20T11:31:39;7.60;;;5.30;;
41883;SDS011;27566;50.930;5.328;2023-07-20T11:34:07;13.55;;;9.20;;
41883;SDS011;27566;50.930;5.328;2023-07-20T11:36:36;7.55;;;3.90;;
41883;SDS011;27566;50.930;5.328;2023-07-20T11:39:10;4.80;;;2.22;;
41883;SDS011;27566;50.930;5.328;2023-07-20T11:41:37;4.68;;;2.97;;
41883;SDS011;27566;50.930;5.328;2023-07-20T11:44:05;3.28;;;2.15;;
41883;SDS011;27566;50.930;5.328;2023-07-20T11:46:32;8.32;;;4.43;;
41883;SDS011;27566;50.930;5.328;2023-07-20T11:48:59;24.60;;;16.60;;
41883;SDS011;27566;50.930;5.328;2023-07-20T11:51:29;8.63;;;3.97;;
41883;SDS011;27566;50.930;5.328;2023-07-20T11:53:57;6.85;;;3.15;;
41883;SDS011;27566;50.930;5.328;2023-07-20T11:56:24;6.75;;;2.35;;
41883;SDS011;27566;50.930;5.328;2023-07-20T11:58:54;7.35;;;2.83;;
41883;SDS011;27566;50.930;5.328;2023-07-20T12:01:23;4.97;;;2.90;;
41883;SDS011;27566;50.930;5.328;2023-07-20T12:03:49;4.00;;;2.28;;
41883;SDS011;27566;50.930;5.328;2023-07-20T12:06:15;4.32;;;2.00;;
41883;SDS011;27566;50.930;5.328;2023-07-20T12:08:41;3.10;;;1.92;;
41883;SDS011;27566;50.930;5.328;2023-07-20T12:11:08;2.67;;;1.95;;
41883;SDS011;27566;50.930;5.328;2023-07-20T12:13:38;4.53;;;1.98;;
41883;SDS011;27566;50.930;5.328;2023-07-20T12:16:10;3.05;;;1.95;;
41883;SDS011;27566;50.930;5.328;2023-07-20T12:18:38;3.90;;;2.23;;
41883;SDS011;27566;50.930;5.328;2023-07-20T12:21:05;5.15;;;2.58;;
41883;SDS011;27566;50.930;5.328;2023-07-20T12:23:36;4.03;;;2.78;;
41883;SDS011;27566;50.930;5.328;2023-07-20T12:26:06;5.18;;;1.80;;
41883;SDS011;27566;50.930;5.328;2023-07-20T12:28:35;4.45;;;1.90;;
41883;SDS011;27566;50.930;5.328;2023-07-20T12:31:06;3.00;;;1.70;;
41883;SDS011;27566;50.930;5.328;2023-07-20T12:33:33;2.28;;;1.65;;
41883;SDS011;27566;50.930;5.328;2023-07-20T12:35:59;2.03;;;1.48;;
41883;SDS011;27566;50.930;5.328;2023-07-20T12:38:26;5.85;;;2.10;;
41883;SDS011;27566;50.930;5.328;2023-07-20T12:40:53;4.03;;;1.67;;
41883;SDS011;27566;50.930;5.328;2023-07-20T12:43:23;2.95;;;1.80;;
41883;SDS011;27566;50.930;5.328;2023-07-20T12:45:49;3.90;;;2.50;;
41883;SDS011;27566;50.930;5.328;2023-07-20T12:48:15;3.17;;;1.75;;
41883;SDS011;27566;50.930;5.328;2023-07-20T12:50:41;6.63;;;3.40;;
41883;SDS011;27566;50.930;5.328;2023-07-20T12:53:07;11.73;;;7.72;;
41883;SDS011;27566;50.930;5.328;2023-07-20T12:55:33;6.68;;;2.20;;
41883;SDS011;27566;50.930;5.328;2023-07-20T12:57:58;4.10;;;1.90;;
41883;SDS011;27566;50.930;5.328;2023-07-20T13:00:24;3.08;;;2.08;;
41883;SDS011;27566;50.930;5.328;2023-07-20T13:02:50;2.47;;;1.63;;
41883;SDS011;27566;50.930;5.328;2023-07-20T13:05:16;2.97;;;1.85;;
41883;SDS011;27566;50.930;5.328;2023-07-20T13:07:42;4.70;;;2.83;;
41883;SDS011;27566;50.930;5.328;2023-07-20T13:10:09;4.97;;;2.75;;
41883;SDS011;27566;50.930;5.328;2023-07-20T13:12:36;4.32;;;2.00;;
41883;SDS011;27566;50.930;5.328;2023-07-20T13:15:03;3.92;;;2.05;;
41883;SDS011;27566;50.930;5.328;2023-07-20T13:17:37;2.33;;;1.45;;
41883;SDS011;27566;50.930;5.328;2023-07-20T13:20:07;2.92;;;1.55;;
41883;SDS011;27566;50.930;5.328;2023-07-20T13:22:35;4.53;;;1.65;;
41883;SDS011;27566;50.930;5.328;2023-07-20T13:25:01;2.60;;;1.30;;
41883;SDS011;27566;50.930;5.328;2023-07-20T13:27:27;1.35;;;1.25;;
41883;SDS011;27566;50.930;5.328;2023-07-20T13:29:53;2.30;;;1.45;;
41883;SDS011;27566;50.930;5.328;2023-07-20T13:32:19;1.85;;;1.33;;
41883;SDS011;27566;50.930;5.328;2023-07-20T13:34:45;5.82;;;1.60;;
41883;SDS011;27566;50.930;5.328;2023-07-20T13:37:11;3.30;;;1.35;;
41883;SDS011;27566;50.930;5.328;2023-07-20T13:39:38;2.72;;;1.50;;
41883;SDS011;27566;50.930;5.328;2023-07-20T13:42:04;3.30;;;2.00;;
41883;SDS011;27566;50.930;5.328;2023-07-20T13:44:31;2.92;;;1.60;;
41883;SDS011;27566;50.930;5.328;2023-07-20T13:46:57;1.90;;;1.30;;
41883;SDS011;27566;50.930;5.328;2023-07-20T13:49:23;3.78;;;2.00;;
41883;SDS011;27566;50.930;5.328;2023-07-20T13:51:49;3.03;;;1.33;;
41883;SDS011;27566;50.930;5.328;2023-07-20T13:54:15;1.85;;;1.15;;
41883;SDS011;27566;50.930;5.328;2023-07-20T13:56:41;1.95;;;1.30;;
41883;SDS011;27566;50.930;5.328;2023-07-20T13:59:07;2.78;;;1.67;;
41883;SDS011;27566;50.930;5.328;2023-07-20T14:01:32;1.88;;;1.17;;
41883;SDS011;27566;50.930;5.328;2023-07-20T14:03:59;3.30;;;1.35;;
41883;SDS011;27566;50.930;5.328;2023-07-20T14:06:28;1.80;;;1.42;;
41883;SDS011;27566;50.930;5.328;2023-07-20T14:08:57;3.35;;;1.88;;
41883;SDS011;27566;50.930;5.328;2023-07-20T14:11:24;1.77;;;1.15;;
41883;SDS011;27566;50.930;5.328;2023-07-20T14:13:50;3.63;;;1.38;;
41883;SDS011;27566;50.930;5.328;2023-07-20T14:16:20;1.52;;;1.00;;
41883;SDS011;27566;50.930;5.328;2023-07-20T14:18:48;2.35;;;1.20;;
41883;SDS011;27566;50.930;5.328;2023-07-20T14:21:15;1.83;;;0.90;;
41883;SDS011;27566;50.930;5.328;2023-07-20T14:23:44;1.10;;;1.00;;
41883;SDS011;27566;50.930;5.328;2023-07-20T14:28:40;1.85;;;1.10;;
41883;SDS011;27566;50.930;5.328;2023-07-20T14:31:06;3.90;;;1.13;;
41883;SDS011;27566;50.930;5.328;2023-07-20T14:33:32;1.92;;;1.00;;
41883;SDS011;27566;50.930;5.328;2023-07-20T14:35:59;1.40;;;1.00;;
41883;SDS011;27566;50.930;5.328;2023-07-20T14:38:28;1.25;;;0.90;;
41883;SDS011;27566;50.930;5.328;2023-07-20T14:40:54;0.75;;;0.70;;
41883;SDS011;27566;50.930;5.328;2023-07-20T14:43:20;1.80;;;1.00;;
41883;SDS011;27566;50.930;5.328;2023-07-20T14:45:46;2.08;;;1.00;;
41883;SDS011;27566;50.930;5.328;2023-07-20T14:48:12;1.40;;;1.30;;
41883;SDS011;27566;50.930;5.328;2023-07-20T14:50:38;1.63;;;1.20;;
41883;SDS011;27566;50.930;5.328;2023-07-20T14:53:03;2.53;;;0.90;;
41883;SDS011;27566;50.930;5.328;2023-07-20T14:55:29;2.78;;;1.42;;
41883;SDS011;27566;50.930;5.328;2023-07-20T14:57:57;1.17;;;0.93;;
41883;SDS011;27566;50.930;5.328;2023-07-20T15:00:26;2.03;;;1.00;;
41883;SDS011;27566;50.930;5.328;2023-07-20T15:02:52;1.83;;;1.08;;
41883;SDS011;27566;50.930;5.328;2023-07-20T15:05:21;2.28;;;1.30;;
41883;SDS011;27566;50.930;5.328;2023-07-20T15:07:47;2.90;;;1.50;;
41883;SDS011;27566;50.930;5.328;2023-07-20T15:10:13;1.70;;;1.02;;
41883;SDS011;27566;50.930;5.328;2023-07-20T15:12:39;1.42;;;1.00;;